Time;durP1;ratioP1;P1;durP2;ratioP2;P2;SDS_P1;SDS_P2;PMS_P1;PMS_P2;Temp;Humidity;BMP_temperature;BMP_pressure;BME280_temperature;BME280_humidity;BME280_pressure;Samples;Min_cycle;Max_cycle;Signal;HPM_P1;HPM_P2
2023/06/15 00:01:38;;;;;;;;;27.50;22.00;;;;;26.36;32.92;101030.88;6129896;23;44985;-67
2023/06/15 00:04:04;;;;;;;;;22.75;20.00;;;;;26.32;32.75;101032.81;6129409;23;44992;-69
2023/06/15 00:06:29;;;;;;;;;27.75;18.75;;;;;26.32;32.61;101034.69;6130076;23;45526;-68
2023/06/15 00:08:56;;;;;;;;;24.50;21.25;;;;;26.22;32.91;101024.03;6133724;23;44983;-67
2023/06/15 00:11:21;;;;;;;;;21.75;17.00;;;;;26.22;32.83;101026.75;6131861;23;45099;-68
2023/06/15 00:13:46;;;;;;;;;18.00;14.50;;;;;26.04;32.78;101002.75;6131432;23;45278;-67
2023/06/15 00:16:14;;;;;;;;;17.75;15.75;;;;;26.20;33.17;101034.16;6128793;23;56953;-67
2023/06/15 00:18:40;;;;;;;;;20.75;18.25;;;;;26.14;33.11;101030.72;6129579;23;45464;-68
2023/06/15 00:21:08;;;;;;;;;20.00;18.50;;;;;25.98;33.24;101013.91;6128248;23;44993;-67
2023/06/15 00:23:34;;;;;;;;;21.00;18.50;;;;;26.05;33.42;101020.94;6129841;23;44987;-65
2023/06/15 00:25:59;;;;;;;;;20.75;18.50;;;;;25.99;33.07;101019.31;6130504;23;45127;-67
2023/06/15 00:28:24;;;;;;;;;19.50;17.50;;;;;26.06;32.87;101036.44;6129131;23;45227;-67
2023/06/15 00:30:50;;;;;;;;;20.75;19.25;;;;;26.02;33.16;101035.66;6129372;23;44919;-72
2023/06/15 00:33:15;;;;;;;;;19.75;17.75;;;;;25.96;33.34;101045.91;6129788;23;45080;-66
2023/06/15 00:35:41;;;;;;;;;21.25;15.75;;;;;25.89;33.42;101029.66;6129444;23;45349;-67
2023/06/15 00:38:06;;;;;;;;;19.25;17.00;;;;;25.82;33.57;101025.34;6129042;23;44891;-66
2023/06/15 00:40:31;;;;;;;;;20.25;14.00;;;;;25.92;33.56;101045.09;6128901;23;45225;-66
2023/06/15 00:42:57;;;;;;;;;18.25;17.25;;;;;25.80;33.72;101032.69;6130146;23;44932;-67
2023/06/15 00:45:22;;;;;;;;;29.25;22.25;;;;;25.71;33.63;101019.31;6129238;23;46073;-67
2023/06/15 00:47:47;;;;;;;;;44.75;32.25;;;;;25.79;33.78;101054.63;6129734;23;45038;-67
2023/06/15 00:50:19;;;;;;;;;63.50;46.00;;;;;25.60;33.53;101021.50;6128284;23;44988;-67
2023/06/15 00:52:48;;;;;;;;;73.25;54.75;;;;;25.72;33.81;101049.38;6130975;23;45084;-71
2023/06/15 00:55:18;;;;;;;;;76.75;57.75;;;;;25.52;33.59;101035.41;6130011;23;45501;-70
2023/06/15 00:57:49;;;;;;;;;81.75;61.75;;;;;25.63;33.97;101054.25;6131481;23;45279;-67
2023/06/15 01:00:16;;;;;;;;;79.75;59.75;;;;;25.46;33.89;101024.66;6127967;23;45397;-68
2023/06/15 01:02:42;;;;;;;;;84.00;71.00;;;;;25.59;33.96;101047.97;6129896;23;45419;-67
2023/06/15 01:05:12;;;;;;;;;68.50;53.00;;;;;25.56;34.29;101043.47;6128408;23;45426;-65
2023/06/15 01:07:40;;;;;;;;;81.00;63.50;;;;;25.49;34.17;101046.44;6129430;23;45095;-71
2023/06/15 01:10:12;;;;;;;;;73.00;52.50;;;;;25.42;33.88;101034.78;6134806;23;45641;-72
2023/06/15 01:12:40;;;;;;;;;70.50;54.00;;;;;25.52;34.12;101050.00;6136502;23;44982;-69
2023/06/15 01:15:10;;;;;;;;;52.50;37.25;;;;;25.44;33.94;101035.66;6132051;23;45642;-67
2023/06/15 01:17:44;;;;;;;;;46.25;33.50;;;;;25.41;34.04;101056.72;6128218;23;45218;-66
2023/06/15 01:20:17;;;;;;;;;31.00;24.50;;;;;25.42;34.09;101053.06;6126722;23;45395;-66
2023/06/15 01:23:25;;;;;;;;;28.00;26.75;;;;;25.29;34.14;101045.22;6129159;23;44886;-67
2023/06/15 01:25:54;;;;;;;;;21.00;17.00;;;;;25.30;34.15;101054.31;6007746;23;45360;-68
2023/06/15 01:28:20;;;;;;;;;31.75;29.50;;;;;25.24;34.45;101049.88;6009025;23;45074;-66
2023/06/15 01:30:52;;;;;;;;;32.50;29.00;;;;;25.27;34.63;101054.41;6070571;23;45501;-67
2023/06/15 01:33:18;;;;;;;;;46.25;33.75;;;;;25.12;34.04;101034.75;6127723;23;45256;-67
2023/06/15 01:35:44;;;;;;;;;44.75;36.25;;;;;25.18;34.43;101042.78;6125086;23;46592;-68
2023/06/15 01:38:11;;;;;;;;;47.50;37.00;;;;;25.19;34.46;101052.78;6124651;23;45213;-68
2023/06/15 01:40:42;;;;;;;;;53.50;39.75;;;;;25.20;34.35;101053.66;6125971;23;45253;-67
2023/06/15 01:43:11;;;;;;;;;53.75;37.25;;;;;25.06;34.48;101031.28;6127746;23;44979;-67
2023/06/15 01:45:38;;;;;;;;;52.50;41.75;;;;;25.08;34.38;101032.13;6127138;23;46252;-67
2023/06/15 01:48:05;;;;;;;;;58.75;46.00;;;;;25.15;34.74;101048.31;6129584;23;45190;-67
2023/06/15 01:50:32;;;;;;;;;63.75;47.25;;;;;25.14;34.36;101060.19;6129992;23;45152;-66
2023/06/15 01:52:57;;;;;;;;;65.50;49.75;;;;;25.15;35.02;101056.53;6128478;23;45312;-68
2023/06/15 01:55:23;;;;;;;;;74.00;55.50;;;;;25.12;34.91;101055.72;6130874;23;47152;-67
2023/06/15 01:57:48;;;;;;;;;75.50;57.75;;;;;25.00;34.48;101043.31;6123464;23;45426;-70
2023/06/15 02:00:14;;;;;;;;;69.50;54.00;;;;;25.07;34.77;101058.59;6121702;23;45304;-67
2023/06/15 02:02:40;;;;;;;;;75.75;53.50;;;;;25.06;34.84;101056.78;6119787;23;45406;-67
2023/06/15 02:05:06;;;;;;;;;67.25;48.25;;;;;25.01;34.65;101047.81;6118902;23;46088;-68
2023/06/15 02:07:32;;;;;;;;;62.25;46.50;;;;;25.02;34.61;101057.84;6122095;23;45454;-66
2023/06/15 02:09:58;;;;;;;;;60.75;43.75;;;;;25.02;34.58;101064.19;6119661;23;45303;-69
2023/06/15 02:12:23;;;;;;;;;54.00;40.00;;;;;24.89;34.95;101040.88;6119391;23;45632;-72
2023/06/15 02:14:49;;;;;;;;;42.00;34.25;;;;;25.01;34.53;101054.22;6120767;23;45175;-70
2023/06/15 02:17:17;;;;;;;;;33.25;25.75;;;;;24.99;34.95;101050.59;6118982;23;45437;-71
2023/06/15 02:19:47;;;;;;;;;30.25;27.50;;;;;24.96;34.94;101047.97;6121212;23;45477;-68
2023/06/15 02:22:13;;;;;;;;;25.25;22.75;;;;;24.94;34.94;101043.50;6121048;23;45329;-66
2023/06/15 02:24:38;;;;;;;;;22.00;18.00;;;;;24.94;35.07;101048.94;6118861;23;45900;-66
2023/06/15 02:27:05;;;;;;;;;22.00;20.00;;;;;24.83;34.86;101033.75;6119396;23;45224;-67
2023/06/15 02:29:30;;;;;;;;;18.00;17.00;;;;;24.80;34.92;101027.50;6120346;23;45253;-67
2023/06/15 02:31:56;;;;;;;;;19.00;18.50;;;;;24.77;34.76;101027.56;6119858;23;45391;-66
2023/06/15 02:34:21;;;;;;;;;20.67;16.67;;;;;24.69;34.96;101011.38;6118280;23;46882;-67
2023/06/15 02:36:48;;;;;;;;;18.67;16.67;;;;;24.86;35.16;101034.59;6119259;23;45291;-68
2023/06/15 02:39:14;;;;;;;;;15.67;14.67;;;;;24.95;34.61;101056.22;6119710;23;45340;-67
2023/06/15 02:41:39;;;;;;;;;12.33;12.33;;;;;24.75;34.83;101023.97;6119826;23;45294;-66
2023/06/15 02:44:05;;;;;;;;;12.25;12.25;;;;;24.87;34.29;101048.22;6121278;23;46992;-67
2023/06/15 02:46:30;;;;;;;;;22.25;18.25;;;;;24.87;34.52;101055.53;6120768;23;45473;-68
2023/06/15 02:48:57;;;;;;;;;16.33;13.33;;;;;24.76;34.76;101040.31;6123482;23;45623;-65
2023/06/15 02:51:23;;;;;;;;;18.25;15.25;;;;;24.76;34.89;101039.44;6131926;23;45198;-67
2023/06/15 02:53:48;;;;;;;;;16.00;14.33;;;;;24.70;34.71;101035.06;6129235;23;45363;-65
2023/06/15 02:56:20;;;;;;;;;18.00;16.33;;;;;24.78;34.92;101048.47;6128264;23;45262;-66
2023/06/15 02:58:53;;;;;;;;;18.33;14.33;;;;;24.75;34.86;101049.47;6128439;23;44959;-67
2023/06/15 03:01:20;;;;;;;;;15.33;14.33;;;;;24.62;34.85;101039.84;6129264;23;45091;-68
2023/06/15 03:03:45;;;;;;;;;17.25;17.25;;;;;24.68;34.50;101058.75;6129757;23;45544;-66
2023/06/15 03:06:11;;;;;;;;;13.00;13.00;;;;;24.69;34.72;101063.31;6128224;23;45314;-66
2023/06/15 03:08:38;;;;;;;;;17.33;15.00;;;;;24.62;34.28;101054.38;6128694;23;45279;-68
2023/06/15 03:11:03;;;;;;;;;12.00;10.67;;;;;24.64;34.75;101065.28;6130092;23;45075;-66
2023/06/15 03:13:29;;;;;;;;;17.00;13.67;;;;;24.62;34.44;101061.69;6128493;23;45522;-67
2023/06/15 03:15:55;;;;;;;;;13.33;11.00;;;;;24.61;34.38;101060.78;6129481;23;44929;-66
2023/06/15 03:18:21;;;;;;;;;13.25;13.25;;;;;24.52;35.00;101049.16;6129754;23;44843;-66
2023/06/15 03:20:52;;;;;;;;;15.33;13.00;;;;;24.59;34.80;101065.38;6131304;23;45102;-65
2023/06/15 03:23:20;;;;;;;;;11.33;11.33;;;;;24.60;34.64;101066.28;6127792;23;45709;-67
2023/06/15 03:25:46;;;;;;;;;13.00;11.33;;;;;24.59;35.29;101075.44;6128087;23;45223;-69
2023/06/15 03:28:11;;;;;;;;;12.67;9.67;;;;;24.45;34.89;101046.59;6129106;23;45263;-68
2023/06/15 03:30:40;;;;;;;;;13.67;12.67;;;;;24.55;35.19;101065.47;6128021;23;45049;-70
2023/06/15 03:33:06;;;;;;;;;16.00;13.33;;;;;24.51;34.80;101058.31;6130180;23;45489;-79
2023/06/15 03:35:32;;;;;;;;;14.00;12.00;;;;;24.52;35.14;101061.00;6130665;23;45265;-74
2023/06/15 03:37:57;;;;;;;;;19.33;16.33;;;;;24.47;35.07;101057.50;6129898;23;45465;-73
2023/06/15 03:40:22;;;;;;;;;15.00;12.67;;;;;24.49;35.15;101061.06;6130763;23;45350;-75
2023/06/15 03:42:48;;;;;;;;;17.33;14.67;;;;;24.49;35.35;101072.00;6130080;23;45445;-67
2023/06/15 03:45:13;;;;;;;;;10.67;9.00;;;;;24.43;35.55;101069.44;6129583;23;45444;-73
2023/06/15 03:47:38;;;;;;;;;14.00;12.00;;;;;24.03;35.33;101008.56;6137494;23;44914;-68
2023/06/15 03:50:06;;;;;;;;;12.00;12.00;;;;;24.36;35.64;101068.69;6142421;23;44867;-71
2023/06/15 03:52:33;;;;;;;;;15.67;14.67;;;;;24.24;35.62;101063.56;6133215;23;45520;-73
2023/06/15 03:54:58;;;;;;;;;13.67;11.33;;;;;24.35;35.24;101066.88;6131057;23;45069;-72
2023/06/15 03:57:23;;;;;;;;;13.67;13.67;;;;;24.38;35.69;101076.84;6129063;23;45214;-76
2023/06/15 03:59:49;;;;;;;;;16.33;12.67;;;;;24.06;35.62;101021.22;6128888;23;45690;-67
2023/06/15 04:02:14;;;;;;;;;14.25;11.75;;;;;24.28;35.39;101066.16;6128520;23;47369;-71
2023/06/15 04:04:40;;;;;;;;;11.33;11.33;;;;;24.21;35.97;101053.59;6128944;23;44888;-73
2023/06/15 04:07:08;;;;;;;;;11.33;11.33;;;;;24.20;36.30;101051.78;6128121;23;45106;-70
2023/06/15 04:09:34;;;;;;;;;15.00;12.33;;;;;24.27;36.45;101064.38;6129740;23;45232;-75
2023/06/15 04:11:59;;;;;;;;;15.67;15.00;;;;;24.28;35.93;101071.59;6129661;23;45273;-71
2023/06/15 04:14:24;;;;;;;;;17.00;16.00;;;;;24.30;36.17;101077.03;6131472;23;44954;-66
2023/06/15 04:16:50;;;;;;;;;13.67;12.33;;;;;24.29;36.32;101080.72;6131537;23;44871;-67
2023/06/15 04:19:15;;;;;;;;;13.33;13.33;;;;;24.30;36.08;101085.22;6130211;23;44937;-67
2023/06/15 04:21:40;;;;;;;;;14.00;13.67;;;;;24.29;35.75;101089.78;6131209;23;45133;-65
2023/06/15 04:24:06;;;;;;;;;11.00;11.00;;;;;24.16;36.16;101063.75;6128282;23;45141;-66
2023/06/15 04:26:32;;;;;;;;;14.33;14.33;;;;;24.08;35.87;101053.00;6131658;23;44922;-67
2023/06/15 04:29:00;;;;;;;;;12.00;11.00;;;;;24.27;36.30;101093.50;6131152;23;44957;-67
2023/06/15 04:31:26;;;;;;;;;12.33;10.67;;;;;24.26;35.80;101089.88;6131099;23;45702;-68
2023/06/15 04:33:52;;;;;;;;;14.33;11.67;;;;;24.26;35.99;101089.88;6131612;23;45096;-66
2023/06/15 04:36:18;;;;;;;;;12.33;12.33;;;;;24.06;36.04;101057.59;6131057;23;45110;-67
2023/06/15 04:38:48;;;;;;;;;12.67;12.67;;;;;24.27;35.96;101104.44;6130819;23;45591;-67
2023/06/15 04:41:14;;;;;;;;;15.33;12.33;;;;;24.25;36.39;101093.56;6129537;23;45231;-66
2023/06/15 04:43:40;;;;;;;;;13.00;13.00;;;;;24.27;35.92;101090.78;6128041;23;45107;-67
2023/06/15 04:46:06;;;;;;;;;9.00;7.67;;;;;24.22;35.89;101079.06;6128845;23;45017;-67
2023/06/15 04:48:32;;;;;;;;;16.50;14.75;;;;;24.27;35.81;101093.50;6130790;23;45283;-67
2023/06/15 04:50:57;;;;;;;;;14.67;11.33;;;;;24.23;35.88;101089.06;6130825;23;45983;-68
2023/06/15 04:53:22;;;;;;;;;14.00;12.00;;;;;24.28;35.78;101108.94;6130519;23;44967;-67
2023/06/15 04:55:48;;;;;;;;;14.67;13.33;;;;;24.17;36.01;101095.56;6129830;23;45357;-66
2023/06/15 04:58:14;;;;;;;;;10.00;10.00;;;;;24.20;35.82;101097.31;6131254;23;44927;-66
2023/06/15 05:00:41;;;;;;;;;12.67;12.67;;;;;24.13;35.79;101090.22;6128994;23;45236;-67
2023/06/15 05:03:07;;;;;;;;;14.33;12.67;;;;;24.19;36.39;101099.16;6128841;23;44940;-68
2023/06/15 05:05:32;;;;;;;;;20.33;16.00;;;;;24.24;36.10;101110.84;6128742;23;44960;-67
2023/06/15 05:07:57;;;;;;;;;22.75;20.75;;;;;24.24;35.87;101107.25;6129075;23;45062;-67
2023/06/15 05:10:23;;;;;;;;;20.25;19.25;;;;;24.25;36.19;101106.28;6128029;23;45376;-67
2023/06/15 05:12:48;;;;;;;;;13.33;11.33;;;;;24.26;35.93;101111.72;6128729;23;45039;-68
2023/06/15 05:15:14;;;;;;;;;18.50;14.75;;;;;24.27;36.47;101118.09;6127813;23;44986;-68
2023/06/15 05:17:39;;;;;;;;;51.00;39.75;;;;;24.31;36.11;101118.91;6129795;23;45164;-66
2023/06/15 05:20:08;;;;;;;;;34.00;31.25;;;;;24.34;36.01;101118.84;6128085;23;51056;-67
2023/06/15 05:22:33;;;;;;;;;18.25;14.50;;;;;24.23;36.56;101106.31;6106117;23;45169;-67
2023/06/15 05:24:58;;;;;;;;;19.50;19.50;;;;;24.28;36.58;101114.41;6130466;23;44907;-66
2023/06/15 05:27:24;;;;;;;;;13.33;11.67;;;;;24.20;36.61;101108.22;6128245;23;45235;-66
2023/06/15 05:29:49;;;;;;;;;12.00;11.67;;;;;24.26;36.55;101129.94;6131365;23;46301;-65
2023/06/15 05:32:15;;;;;;;;;12.67;10.33;;;;;24.26;36.33;101121.75;6131148;23;44883;-69
2023/06/15 05:34:41;;;;;;;;;10.67;10.33;;;;;24.23;36.11;101117.25;6131175;23;45052;-67
2023/06/15 05:37:06;;;;;;;;;15.33;13.00;;;;;23.96;36.49;101068.81;6133895;23;44868;-66
2023/06/15 05:39:31;;;;;;;;;11.00;10.33;;;;;24.27;36.22;101134.47;6131595;23;45228;-68
2023/06/15 05:41:57;;;;;;;;;12.00;11.67;;;;;24.22;36.25;101125.47;6131317;23;44963;-68
2023/06/15 05:44:23;;;;;;;;;16.75;14.75;;;;;24.19;36.62;101131.91;6131365;23;44953;-69
2023/06/15 05:46:48;;;;;;;;;24.25;20.50;;;;;24.19;36.86;101131.91;6131849;23;45146;-68
2023/06/15 05:49:15;;;;;;;;;26.00;23.75;;;;;24.02;36.59;101110.50;6131002;23;45432;-68
2023/06/15 05:51:40;;;;;;;;;29.00;22.75;;;;;24.18;36.68;101140.16;6131104;23;45007;-68
2023/06/15 05:54:05;;;;;;;;;13.75;12.50;;;;;24.17;36.64;101142.00;6131077;23;45432;-72
2023/06/15 05:56:31;;;;;;;;;16.75;16.75;;;;;24.05;36.36;101112.22;6131247;23;45111;-68
2023/06/15 05:58:56;;;;;;;;;19.25;19.25;;;;;24.02;36.58;101117.75;6131382;23;45337;-68
2023/06/15 06:01:21;;;;;;;;;48.50;39.00;;;;;24.24;36.41;101145.47;6130163;23;45486;-67
2023/06/15 06:03:47;;;;;;;;;23.50;15.50;;;;;24.21;36.35;101134.63;6128598;23;45255;-68
2023/06/15 06:06:13;;;;;;;;;26.00;22.00;;;;;24.24;36.40;101140.00;6129369;23;45029;-67
2023/06/15 06:08:38;;;;;;;;;12.33;11.00;;;;;24.23;35.94;101132.75;6129644;23;45532;-68
2023/06/15 06:11:07;;;;;;;;;14.67;12.67;;;;;24.27;36.33;101135.38;6131008;23;44983;-68
2023/06/15 06:13:33;;;;;;;;;17.67;13.00;;;;;24.27;36.51;101126.28;6127402;23;45480;-68
2023/06/15 06:16:00;;;;;;;;;14.33;13.00;;;;;24.40;35.93;101145.97;6130804;23;45312;-66
2023/06/15 06:18:26;;;;;;;;;12.67;10.33;;;;;24.34;36.39;101135.22;6131469;23;45304;-67
2023/06/15 06:20:51;;;;;;;;;20.00;16.67;;;;;24.39;36.29;101145.09;6130786;23;45027;-71
2023/06/15 06:23:17;;;;;;;;;15.67;11.67;;;;;24.44;36.42;101144.97;6127378;23;45165;-67
2023/06/15 06:25:42;;;;;;;;;12.67;12.33;;;;;24.44;35.98;101140.41;6133019;23;45053;-68
2023/06/15 06:28:07;;;;;;;;;13.00;11.00;;;;;24.50;36.17;101147.56;6132398;23;47337;-66
2023/06/15 06:30:33;;;;;;;;;18.67;14.00;;;;;24.53;35.78;101149.31;6130743;23;44583;-70
2023/06/15 06:32:59;;;;;;;;;15.00;13.33;;;;;24.56;35.90;101147.41;6129595;23;44979;-67
2023/06/15 06:35:24;;;;;;;;;13.00;12.00;;;;;24.56;35.79;101162.91;6130898;23;45543;-67
2023/06/15 06:37:50;;;;;;;;;13.50;12.50;;;;;24.44;35.62;101139.50;6131224;23;45125;-69
2023/06/15 06:40:15;;;;;;;;;25.25;17.75;;;;;24.63;35.58;101167.28;6130742;23;45142;-69
2023/06/15 06:42:40;;;;;;;;;13.67;12.67;;;;;24.65;35.23;101162.69;6130459;23;55719;-67
2023/06/15 06:45:06;;;;;;;;;13.33;12.00;;;;;24.67;35.74;101154.47;6130677;23;45235;-70
2023/06/15 06:47:32;;;;;;;;;16.00;15.75;;;;;24.69;35.27;101153.47;6130450;23;45344;-66
2023/06/15 06:49:59;;;;;;;;;20.75;17.50;;;;;24.83;35.17;101173.16;6127712;23;45284;-69
2023/06/15 06:52:25;;;;;;;;;18.33;17.00;;;;;24.82;35.10;101165.88;6128775;23;45109;-68
2023/06/15 06:54:51;;;;;;;;;18.50;17.00;;;;;24.75;35.11;101152.41;6130852;23;44881;-68
2023/06/15 06:57:16;;;;;;;;;18.00;15.33;;;;;24.90;34.75;101176.63;6130874;23;45416;-66
2023/06/15 06:59:42;;;;;;;;;18.00;12.00;;;;;24.96;35.67;101172.81;6129724;23;44979;-66
2023/06/15 07:02:07;;;;;;;;;24.25;20.00;;;;;24.98;35.41;101170.94;6130160;23;45044;-66
2023/06/15 07:04:32;;;;;;;;;12.67;12.00;;;;;24.97;35.09;101170.03;6130523;23;45272;-70
2023/06/15 07:06:58;;;;;;;;;13.33;13.33;;;;;24.97;34.97;101159.09;6127440;23;45844;-67
2023/06/15 07:09:23;;;;;;;;;23.50;20.00;;;;;25.15;35.26;101176.84;6119582;23;45280;-68
2023/06/15 07:11:48;;;;;;;;;17.33;13.33;;;;;25.17;35.01;101177.69;6119026;23;45435;-70
2023/06/15 07:14:14;;;;;;;;;17.00;11.00;;;;;25.22;35.05;101177.56;6118454;23;45376;-66
2023/06/15 07:16:39;;;;;;;;;19.33;15.33;;;;;25.30;34.72;101189.22;6123783;23;47220;-69
2023/06/15 07:19:05;;;;;;;;;14.00;12.33;;;;;25.36;35.36;101189.06;6120788;23;45203;-69
2023/06/15 07:21:30;;;;;;;;;12.33;11.67;;;;;25.26;34.62;101165.63;6117553;23;45432;-66
2023/06/15 07:23:56;;;;;;;;;10.33;9.67;;;;;25.42;34.09;101173.41;6118470;23;45564;-67
2023/06/15 07:26:22;;;;;;;;;16.67;12.67;;;;;25.46;34.47;101183.31;6120418;23;45493;-68
2023/06/15 07:28:47;;;;;;;;;15.67;13.00;;;;;25.38;33.82;101169.88;6144376;23;45466;-74
2023/06/15 07:31:13;;;;;;;;;10.33;10.33;;;;;25.55;33.79;101192.16;6121396;23;45591;-73
2023/06/15 07:33:38;;;;;;;;;13.67;10.33;;;;;25.50;34.06;101180.44;6119722;23;45365;-70
2023/06/15 07:36:03;;;;;;;;;12.00;11.00;;;;;25.56;34.34;101171.19;6118323;23;45955;-68
2023/06/15 07:38:30;;;;;;;;;25.25;24.50;;;;;25.78;34.44;101189.72;6118502;23;45558;-67
2023/06/15 07:40:56;;;;;;;;;20.50;19.50;;;;;25.84;34.36;101189.53;6119124;23;45582;-65
2023/06/15 07:43:21;;;;;;;;;15.67;14.33;;;;;25.64;34.17;101152.69;6117366;23;45375;-67
2023/06/15 07:45:47;;;;;;;;;15.33;11.67;;;;;25.81;34.21;101164.97;6125907;23;46926;-67
2023/06/15 07:48:13;;;;;;;;;12.50;10.00;;;;;26.01;33.99;101178.97;6131780;23;44961;-71
2023/06/15 07:50:38;;;;;;;;;14.00;12.50;;;;;26.19;34.02;101193.94;6130252;23;45142;-66
2023/06/15 07:53:04;;;;;;;;;15.50;15.00;;;;;26.19;33.90;101185.72;6130525;23;44814;-66
2023/06/15 07:55:29;;;;;;;;;15.67;14.33;;;;;26.33;34.21;101198.97;6131037;23;45357;-68
2023/06/15 07:57:55;;;;;;;;;13.67;13.67;;;;;26.38;33.53;101196.06;6130992;23;45000;-69
2023/06/15 08:00:21;;;;;;;;;16.67;15.33;;;;;26.49;33.73;101183.81;6121059;23;45531;-67
2023/06/15 08:02:47;;;;;;;;;22.33;16.67;;;;;26.62;33.25;101191.66;6119751;23;45450;-70
2023/06/15 08:05:13;;;;;;;;;12.33;12.33;;;;;26.71;33.00;101196.81;6118435;23;47123;-68
2023/06/15 08:07:38;;;;;;;;;21.75;21.75;;;;;26.81;32.72;101189.19;6120126;23;45625;-67
2023/06/15 08:10:04;;;;;;;;;14.67;12.67;;;;;26.75;33.00;101173.88;6123403;23;45475;-68
2023/06/15 08:12:29;;;;;;;;;13.00;11.00;;;;;26.96;32.20;101199.66;6125409;23;45440;-67
2023/06/15 08:14:55;;;;;;;;;14.67;11.67;;;;;26.92;32.88;101175.13;6123496;23;45447;-68
2023/06/15 08:17:26;;;;;;;;;19.00;19.00;;;;;27.16;32.42;101198.06;6120819;23;45632;-66
2023/06/15 08:19:52;;;;;;;;;11.00;10.00;;;;;27.25;31.77;101202.31;6121913;23;45248;-65
2023/06/15 08:22:18;;;;;;;;;25.75;21.00;;;;;27.31;32.44;101204.88;6124460;23;45241;-68
2023/06/15 08:24:44;;;;;;;;;14.33;11.33;;;;;27.36;32.14;101198.25;6122605;23;46572;-67
2023/06/15 08:27:11;;;;;;;;;11.67;11.67;;;;;27.42;31.64;101198.97;6128255;23;45570;-67
2023/06/15 08:29:36;;;;;;;;;8.00;8.00;;;;;27.42;31.24;101199.84;6121517;23;45528;-66
2023/06/15 08:32:03;;;;;;;;;13.67;10.33;;;;;27.39;30.72;101198.16;6120984;23;45403;-66
2023/06/15 08:34:29;;;;;;;;;9.33;8.33;;;;;27.39;30.56;101203.63;6123730;23;46351;-67
2023/06/15 08:36:54;;;;;;;;;16.75;13.75;;;;;27.50;31.20;101199.59;6122586;23;45173;-67
2023/06/15 08:39:19;;;;;;;;;17.00;12.67;;;;;27.58;30.73;101203.81;6121088;23;45241;-67
2023/06/15 08:41:47;;;;;;;;;15.00;13.33;;;;;27.61;30.47;101201.94;6122356;23;45226;-67
2023/06/15 08:44:13;;;;;;;;;14.33;13.67;;;;;27.54;31.30;101182.97;6122030;23;47171;-68
2023/06/15 08:46:42;;;;;;;;;5.67;5.67;;;;;27.57;30.20;101184.69;6118271;23;45432;-69
2023/06/15 08:49:08;;;;;;;;;17.67;14.67;;;;;27.71;30.22;101203.38;6120322;23;45501;-66
2023/06/15 08:51:35;;;;;;;;;22.00;17.50;;;;;27.70;30.62;101209.81;6123471;23;45067;-67
2023/06/15 08:54:03;;;;;;;;;11.00;11.00;;;;;27.68;30.61;101204.38;6124394;23;45472;-67
2023/06/15 08:56:31;;;;;;;;;18.67;8.67;;;;;27.75;29.75;101205.03;6118295;23;45625;-67
2023/06/15 08:58:56;;;;;;;;;11.00;9.00;;;;;27.83;30.02;101207.50;6120718;23;45454;-72
2023/06/15 09:01:23;;;;;;;;;11.67;10.00;;;;;27.92;30.60;101198.94;6118243;23;45254;-67
2023/06/15 09:03:51;;;;;;;;;12.00;11.33;;;;;28.03;30.10;101209.50;6122074;23;45566;-66
2023/06/15 09:06:18;;;;;;;;;9.67;9.67;;;;;28.11;29.64;101200.03;6121808;23;45264;-66
2023/06/15 09:08:44;;;;;;;;;22.33;17.00;;;;;28.13;29.49;101205.44;6120018;23;45412;-68
2023/06/15 09:11:10;;;;;;;;;13.00;10.33;;;;;28.23;29.88;101205.97;6120246;23;45227;-66
2023/06/15 09:13:38;;;;;;;;;12.00;8.33;;;;;28.30;29.01;101207.53;6128354;23;46280;-76
2023/06/15 09:16:08;;;;;;;;;15.50;14.25;;;;;28.31;28.71;101199.22;6131502;23;44945;-67
2023/06/15 09:18:49;;;;;;;;;17.33;13.33;;;;;28.36;29.08;101201.75;6120457;23;45413;-65
2023/06/15 09:21:16;;;;;;;;;10.33;10.33;;;;;28.29;28.28;101173.63;6122165;23;45399;-67
2023/06/15 09:23:44;;;;;;;;;11.00;10.00;;;;;28.52;28.52;101198.41;6120133;23;45442;-67
2023/06/15 09:26:20;;;;;;;;;10.00;7.33;;;;;28.44;28.35;101177.59;6118940;23;45419;-68
2023/06/15 09:28:46;;;;;;;;;8.67;8.33;;;;;28.64;27.52;101198.81;6120374;23;45414;-68
2023/06/15 09:31:31;;;;;;;;;9.33;8.00;;;;;28.61;27.64;101200.78;6144350;23;45414;-66
2023/06/15 09:34:08;;;;;;;;;9.00;7.67;;;;;28.61;27.30;101200.78;6124190;23;45372;-69
2023/06/15 09:36:38;;;;;;;;;12.00;9.67;;;;;28.68;27.72;101203.22;6143798;23;45354;-66
2023/06/15 09:39:04;;;;;;;;;8.67;8.33;;;;;28.60;27.24;101180.66;6125885;23;45269;-71
2023/06/15 09:41:30;;;;;;;;;8.00;6.00;;;;;28.83;27.07;101207.16;6121764;23;45555;-66
2023/06/15 09:43:55;;;;;;;;;8.00;8.00;;;;;28.88;26.48;101195.97;6124232;23;45955;-77
2023/06/15 09:46:20;;;;;;;;;9.33;9.33;;;;;28.85;26.36;101179.59;6121434;23;45379;-70
2023/06/15 09:48:49;;;;;;;;;10.67;10.00;;;;;28.99;26.43;101196.41;6120716;23;46008;-72
2023/06/15 09:51:16;;;;;;;;;7.67;6.00;;;;;29.01;25.22;101199.97;6124134;23;45495;-72
2023/06/15 09:53:43;;;;;;;;;7.33;6.00;;;;;29.07;25.47;101186.91;6117809;23;46858;-70
2023/06/15 09:56:10;;;;;;;;;17.33;13.67;;;;;29.13;26.10;101193.03;6118643;23;45416;-71
2023/06/15 09:58:35;;;;;;;;;12.33;9.67;;;;;29.14;25.95;101191.22;6120681;23;45287;-70
2023/06/15 10:01:04;;;;;;;;;12.00;11.00;;;;;29.16;26.63;101190.16;6122243;23;45402;-70
2023/06/15 10:03:31;;;;;;;;;11.00;10.67;;;;;29.19;25.89;101183.69;6131300;23;45466;-71
2023/06/15 10:06:09;;;;;;;;;9.00;7.00;;;;;29.27;25.46;101188.81;6128931;23;45229;-72
2023/06/15 10:08:38;;;;;;;;;13.67;12.00;;;;;29.32;25.61;101179.41;6124926;23;45354;-71
2023/06/15 10:11:04;;;;;;;;;7.00;7.00;;;;;29.38;24.18;101197.47;6123119;23;45422;-67
2023/06/15 10:13:39;;;;;;;;;7.67;6.00;;;;;29.36;24.51;101183.78;6120716;23;46367;-68
2023/06/15 10:16:07;;;;;;;;;7.33;7.33;;;;;29.45;24.28;101196.25;6120386;23;45403;-68
2023/06/15 10:18:34;;;;;;;;;7.33;6.67;;;;;29.35;24.37;101184.78;6120277;23;45419;-70
2023/06/15 10:21:03;;;;;;;;;13.33;11.00;;;;;29.35;25.17;101183.84;6120634;23;45351;-67
2023/06/15 10:23:31;;;;;;;;;9.00;7.67;;;;;29.35;25.50;101195.78;6120475;23;46274;-71
2023/06/15 10:25:58;;;;;;;;;11.33;11.33;;;;;29.35;24.87;101200.38;6120141;23;45339;-69
2023/06/15 10:28:32;;;;;;;;;10.67;9.67;;;;;29.26;25.44;101193.44;6123358;23;45221;-72
2023/06/15 10:31:01;;;;;;;;;8.67;8.67;;;;;29.31;25.56;101194.13;6122378;23;45210;-70
2023/06/15 10:33:41;;;;;;;;;9.67;9.00;;;;;29.31;24.95;101194.13;6122222;23;47011;-70
2023/06/15 10:36:19;;;;;;;;;12.67;11.33;;;;;29.25;24.91;101180.63;6122455;23;45352;-72
2023/06/15 10:38:56;;;;;;;;;10.00;10.00;;;;;29.36;25.05;101196.66;6121018;23;45311;-70
2023/06/15 10:41:22;;;;;;;;;10.00;9.67;;;;;29.40;25.68;101188.22;6120695;23;45305;-67
2023/06/15 10:44:05;;;;;;;;;9.00;8.00;;;;;29.45;26.03;101193.50;6120422;23;46502;-71
2023/06/15 10:46:34;;;;;;;;;8.67;8.67;;;;;29.26;25.67;101148.50;6120309;23;45283;-69
2023/06/15 10:49:08;;;;;;;;;9.67;9.67;;;;;29.44;25.34;101179.81;6119699;23;45344;-70
2023/06/15 10:51:37;;;;;;;;;10.00;10.00;;;;;29.36;25.65;101163.63;6121115;23;45749;-69
2023/06/15 10:54:04;;;;;;;;;9.67;9.67;;;;;29.58;25.96;101189.22;6119424;23;46447;-67
2023/06/15 10:56:30;;;;;;;;;15.00;12.00;;;;;29.54;25.79;101172.91;6119532;23;45347;-71
2023/06/15 10:58:58;;;;;;;;;15.00;14.33;;;;;29.66;26.08;101182.47;6120086;23;45399;-68
2023/06/15 11:01:25;;;;;;;;;16.00;14.00;;;;;29.61;26.26;101174.41;6121379;23;45361;-76
2023/06/15 11:03:54;;;;;;;;;15.67;14.33;;;;;29.68;26.81;101175.00;6120297;23;46348;-70
2023/06/15 11:06:33;;;;;;;;;12.33;10.33;;;;;29.74;26.16;101183.88;6122021;23;45407;-67
2023/06/15 11:09:07;;;;;;;;;11.67;9.67;;;;;29.75;25.10;101182.91;6124525;23;45248;-69
2023/06/15 11:11:36;;;;;;;;;12.00;11.00;;;;;29.79;24.42;101188.31;6121467;23;45682;-70